sensor_id;sensor_type;location;lat;lon;timestamp;P1;durP1;ratioP1;P2;durP2;ratioP2
54919;SDS011;63804;53.120;8.764;2023-12-20T00:01:40;9.52;;;1.90;;
54919;SDS011;63804;53.120;8.764;2023-12-20T03:24:35;10.15;;;2.00;;
54919;SDS011;63804;53.120;8.764;2023-12-20T03:27:03;10.52;;;2.05;;
54919;SDS011;63804;53.120;8.764;2023-12-20T03:29:30;11.20;;;1.85;;
54919;SDS011;63804;53.120;8.764;2023-12-20T03:31:57;10.60;;;2.08;;
54919;SDS011;63804;53.120;8.764;2023-12-20T03:34:24;10.23;;;1.60;;
54919;SDS011;63804;53.120;8.764;2023-12-20T03:36:51;11.88;;;1.80;;
54919;SDS011;63804;53.120;8.764;2023-12-20T03:39:19;7.25;;;1.77;;
54919;SDS011;63804;53.120;8.764;2023-12-20T03:41:46;9.95;;;1.95;;
54919;SDS011;63804;53.120;8.764;2023-12-20T03:44:28;5.97;;;1.50;;
54919;SDS011;63804;53.120;8.764;2023-12-20T03:46:56;11.05;;;2.17;;
54919;SDS011;63804;53.120;8.764;2023-12-20T03:49:24;9.20;;;2.15;;
54919;SDS011;63804;53.120;8.764;2023-12-20T03:51:52;12.18;;;2.55;;
54919;SDS011;63804;53.120;8.764;2023-12-20T03:54:19;10.70;;;1.83;;
54919;SDS011;63804;53.120;8.764;2023-12-20T03:56:47;10.93;;;2.05;;
54919;SDS011;63804;53.120;8.764;2023-12-20T03:59:15;10.88;;;2.28;;
54919;SDS011;63804;53.120;8.764;2023-12-20T04:01:45;11.68;;;2.17;;
54919;SDS011;63804;53.120;8.764;2023-12-20T04:04:13;13.48;;;2.15;;
54919;SDS011;63804;53.120;8.764;2023-12-20T04:06:41;11.05;;;2.10;;
54919;SDS011;63804;53.120;8.764;2023-12-20T04:09:10;10.35;;;1.95;;
54919;SDS011;63804;53.120;8.764;2023-12-20T04:11:38;9.63;;;2.20;;
54919;SDS011;63804;53.120;8.764;2023-12-20T04:14:05;10.13;;;2.10;;
54919;SDS011;63804;53.120;8.764;2023-12-20T04:16:35;10.05;;;1.98;;
54919;SDS011;63804;53.120;8.764;2023-12-20T04:20:26;11.60;;;2.17;;
54919;SDS011;63804;53.120;8.764;2023-12-20T04:22:54;11.32;;;2.20;;
54919;SDS011;63804;53.120;8.764;2023-12-20T04:25:22;11.43;;;2.13;;
54919;SDS011;63804;53.120;8.764;2023-12-20T04:27:50;15.55;;;2.35;;
54919;SDS011;63804;53.120;8.764;2023-12-20T04:30:18;10.18;;;2.17;;
54919;SDS011;63804;53.120;8.764;2023-12-20T04:32:46;13.38;;;2.10;;
54919;SDS011;63804;53.120;8.764;2023-12-20T04:35:14;11.77;;;2.20;;
54919;SDS011;63804;53.120;8.764;2023-12-20T04:37:42;9.25;;;2.30;;
54919;SDS011;63804;53.120;8.764;2023-12-20T04:40:10;10.10;;;2.22;;
54919;SDS011;63804;53.120;8.764;2023-12-20T04:42:39;9.48;;;2.10;;
54919;SDS011;63804;53.120;8.764;2023-12-20T04:45:06;12.90;;;2.28;;
54919;SDS011;63804;53.120;8.764;2023-12-20T04:47:35;14.23;;;3.17;;
54919;SDS011;63804;53.120;8.764;2023-12-20T04:50:03;8.30;;;2.10;;
54919;SDS011;63804;53.120;8.764;2023-12-20T04:52:31;12.25;;;2.08;;
54919;SDS011;63804;53.120;8.764;2023-12-20T04:54:59;12.13;;;2.15;;
54919;SDS011;63804;53.120;8.764;2023-12-20T04:57:28;14.13;;;2.28;;
54919;SDS011;63804;53.120;8.764;2023-12-20T04:59:56;13.85;;;2.33;;
54919;SDS011;63804;53.120;8.764;2023-12-20T05:02:24;10.30;;;2.30;;
54919;SDS011;63804;53.120;8.764;2023-12-20T05:04:52;9.38;;;1.85;;
54919;SDS011;63804;53.120;8.764;2023-12-20T05:07:22;14.82;;;2.42;;
54919;SDS011;63804;53.120;8.764;2023-12-20T05:09:50;12.23;;;2.30;;
54919;SDS011;63804;53.120;8.764;2023-12-20T05:12:18;12.52;;;2.20;;
54919;SDS011;63804;53.120;8.764;2023-12-20T05:14:46;11.63;;;2.35;;
54919;SDS011;63804;53.120;8.764;2023-12-20T05:17:14;11.40;;;2.38;;
54919;SDS011;63804;53.120;8.764;2023-12-20T05:19:42;13.02;;;2.45;;
54919;SDS011;63804;53.120;8.764;2023-12-20T05:22:09;15.93;;;2.40;;
54919;SDS011;63804;53.120;8.764;2023-12-20T05:24:37;12.07;;;3.00;;
54919;SDS011;63804;53.120;8.764;2023-12-20T05:27:05;12.57;;;2.42;;
54919;SDS011;63804;53.120;8.764;2023-12-20T05:29:33;14.30;;;2.88;;
54919;SDS011;63804;53.120;8.764;2023-12-20T05:32:01;12.13;;;2.35;;
54919;SDS011;63804;53.120;8.764;2023-12-20T05:34:30;15.48;;;2.75;;
54919;SDS011;63804;53.120;8.764;2023-12-20T05:36:59;14.57;;;2.90;;
54919;SDS011;63804;53.120;8.764;2023-12-20T05:39:28;13.13;;;2.67;;
54919;SDS011;63804;53.120;8.764;2023-12-20T05:41:56;16.08;;;3.30;;
54919;SDS011;63804;53.120;8.764;2023-12-20T05:44:24;15.20;;;2.55;;
54919;SDS011;63804;53.120;8.764;2023-12-20T05:46:52;15.05;;;2.35;;
54919;SDS011;63804;53.120;8.764;2023-12-20T05:49:19;18.02;;;2.72;;
54919;SDS011;63804;53.120;8.764;2023-12-20T05:51:47;15.60;;;2.65;;
54919;SDS011;63804;53.120;8.764;2023-12-20T05:54:15;16.40;;;3.38;;
54919;SDS011;63804;53.120;8.764;2023-12-20T05:56:43;17.67;;;3.05;;
54919;SDS011;63804;53.120;8.764;2023-12-20T05:59:11;15.95;;;2.85;;
54919;SDS011;63804;53.120;8.764;2023-12-20T06:01:39;15.52;;;2.65;;
54919;SDS011;63804;53.120;8.764;2023-12-20T06:04:07;17.10;;;3.00;;
54919;SDS011;63804;53.120;8.764;2023-12-20T06:06:39;15.02;;;2.85;;
54919;SDS011;63804;53.120;8.764;2023-12-20T06:09:08;17.27;;;2.80;;
54919;SDS011;63804;53.120;8.764;2023-12-20T06:11:37;15.82;;;3.00;;
54919;SDS011;63804;53.120;8.764;2023-12-20T06:14:05;16.55;;;2.88;;
54919;SDS011;63804;53.120;8.764;2023-12-20T06:16:33;10.90;;;2.45;;
54919;SDS011;63804;53.120;8.764;2023-12-20T06:19:00;16.05;;;3.50;;
54919;SDS011;63804;53.120;8.764;2023-12-20T06:21:29;18.85;;;3.17;;
54919;SDS011;63804;53.120;8.764;2023-12-20T06:23:58;16.23;;;2.92;;
54919;SDS011;63804;53.120;8.764;2023-12-20T06:26:27;15.63;;;3.13;;
54919;SDS011;63804;53.120;8.764;2023-12-20T06:28:55;12.27;;;2.90;;
54919;SDS011;63804;53.120;8.764;2023-12-20T06:31:23;13.45;;;2.97;;
54919;SDS011;63804;53.120;8.764;2023-12-20T06:33:51;16.95;;;4.18;;
54919;SDS011;63804;53.120;8.764;2023-12-20T06:36:28;14.35;;;2.95;;
54919;SDS011;63804;53.120;8.764;2023-12-20T06:38:56;15.85;;;3.15;;
54919;SDS011;63804;53.120;8.764;2023-12-20T06:41:23;18.27;;;2.90;;
54919;SDS011;63804;53.120;8.764;2023-12-20T06:43:52;17.10;;;3.35;;
54919;SDS011;63804;53.120;8.764;2023-12-20T06:46:21;17.75;;;2.95;;
54919;SDS011;63804;53.120;8.764;2023-12-20T06:48:49;12.75;;;2.28;;
54919;SDS011;63804;53.120;8.764;2023-12-20T06:51:17;17.30;;;3.08;;
54919;SDS011;63804;53.120;8.764;2023-12-20T06:53:47;19.08;;;3.20;;
54919;SDS011;63804;53.120;8.764;2023-12-20T06:56:15;17.08;;;3.75;;
54919;SDS011;63804;53.120;8.764;2023-12-20T06:58:46;16.27;;;3.33;;
54919;SDS011;63804;53.120;8.764;2023-12-20T07:01:14;17.88;;;2.92;;
54919;SDS011;63804;53.120;8.764;2023-12-20T07:03:43;15.27;;;3.42;;
54919;SDS011;63804;53.120;8.764;2023-12-20T07:06:11;16.73;;;3.70;;
54919;SDS011;63804;53.120;8.764;2023-12-20T07:08:39;13.95;;;3.67;;
54919;SDS011;63804;53.120;8.764;2023-12-20T07:11:07;15.38;;;2.90;;
54919;SDS011;63804;53.120;8.764;2023-12-20T07:13:35;19.83;;;3.83;;
54919;SDS011;63804;53.120;8.764;2023-12-20T07:16:03;16.05;;;3.22;;
54919;SDS011;63804;53.120;8.764;2023-12-20T07:18:31;15.05;;;3.17;;
54919;SDS011;63804;53.120;8.764;2023-12-20T07:20:59;18.88;;;3.85;;
54919;SDS011;63804;53.120;8.764;2023-12-20T07:23:27;15.35;;;2.95;;
54919;SDS011;63804;53.120;8.764;2023-12-20T07:25:55;19.27;;;3.53;;
54919;SDS011;63804;53.120;8.764;2023-12-20T07:28:23;16.55;;;2.90;;
54919;SDS011;63804;53.120;8.764;2023-12-20T07:30:52;15.45;;;3.10;;
54919;SDS011;63804;53.120;8.764;2023-12-20T07:33:20;18.20;;;3.42;;
54919;SDS011;63804;53.120;8.764;2023-12-20T07:35:49;15.75;;;3.05;;
54919;SDS011;63804;53.120;8.764;2023-12-20T07:38:19;20.75;;;3.92;;
54919;SDS011;63804;53.120;8.764;2023-12-20T07:40:47;17.25;;;3.22;;
54919;SDS011;63804;53.120;8.764;2023-12-20T07:43:15;14.05;;;3.08;;
54919;SDS011;63804;53.120;8.764;2023-12-20T07:45:43;18.25;;;3.58;;
54919;SDS011;63804;53.120;8.764;2023-12-20T07:48:11;16.38;;;3.40;;
54919;SDS011;63804;53.120;8.764;2023-12-20T07:50:39;17.63;;;2.92;;
54919;SDS011;63804;53.120;8.764;2023-12-20T07:53:07;13.52;;;2.97;;
54919;SDS011;63804;53.120;8.764;2023-12-20T07:55:35;18.23;;;3.75;;
54919;SDS011;63804;53.120;8.764;2023-12-20T07:58:03;22.70;;;3.50;;
54919;SDS011;63804;53.120;8.764;2023-12-20T08:00:32;15.75;;;3.28;;
54919;SDS011;63804;53.120;8.764;2023-12-20T08:03:00;16.63;;;2.88;;
54919;SDS011;63804;53.120;8.764;2023-12-20T08:05:31;21.13;;;4.28;;
54919;SDS011;63804;53.120;8.764;2023-12-20T08:07:58;20.58;;;3.90;;
54919;SDS011;63804;53.120;8.764;2023-12-20T08:10:27;15.32;;;3.20;;
54919;SDS011;63804;53.120;8.764;2023-12-20T08:12:57;17.35;;;3.30;;
54919;SDS011;63804;53.120;8.764;2023-12-20T08:15:25;15.30;;;3.22;;
54919;SDS011;63804;53.120;8.764;2023-12-20T08:17:53;18.30;;;3.88;;
54919;SDS011;63804;53.120;8.764;2023-12-20T08:20:21;16.95;;;3.67;;
54919;SDS011;63804;53.120;8.764;2023-12-20T08:22:59;13.55;;;2.67;;
54919;SDS011;63804;53.120;8.764;2023-12-20T08:25:28;17.23;;;3.33;;
54919;SDS011;63804;53.120;8.764;2023-12-20T08:27:56;17.33;;;3.38;;
54919;SDS011;63804;53.120;8.764;2023-12-20T08:30:23;17.67;;;3.15;;
54919;SDS011;63804;53.120;8.764;2023-12-20T08:32:52;15.40;;;2.83;;
54919;SDS011;63804;53.120;8.764;2023-12-20T08:35:20;17.00;;;2.97;;
54919;SDS011;63804;53.120;8.764;2023-12-20T08:37:48;11.55;;;2.50;;
54919;SDS011;63804;53.120;8.764;2023-12-20T08:40:16;13.38;;;3.03;;
54919;SDS011;63804;53.120;8.764;2023-12-20T08:42:43;17.75;;;3.58;;
54919;SDS011;63804;53.120;8.764;2023-12-20T08:45:11;16.10;;;2.88;;
54919;SDS011;63804;53.120;8.764;2023-12-20T08:47:39;17.88;;;3.67;;
54919;SDS011;63804;53.120;8.764;2023-12-20T08:50:08;13.75;;;3.03;;
54919;SDS011;63804;53.120;8.764;2023-12-20T08:52:37;14.13;;;2.83;;
54919;SDS011;63804;53.120;8.764;2023-12-20T08:55:04;13.45;;;3.08;;
54919;SDS011;63804;53.120;8.764;2023-12-20T08:57:33;14.75;;;3.13;;
54919;SDS011;63804;53.120;8.764;2023-12-20T09:00:01;16.08;;;3.35;;
54919;SDS011;63804;53.120;8.764;2023-12-20T09:02:32;13.80;;;3.42;;
54919;SDS011;63804;53.120;8.764;2023-12-20T09:04:59;17.50;;;3.10;;
54919;SDS011;63804;53.120;8.764;2023-12-20T09:07:28;14.85;;;2.90;;
54919;SDS011;63804;53.120;8.764;2023-12-20T09:09:59;14.35;;;3.15;;
54919;SDS011;63804;53.120;8.764;2023-12-20T09:12:27;9.00;;;2.10;;
54919;SDS011;63804;53.120;8.764;2023-12-20T09:14:55;11.65;;;2.15;;
54919;SDS011;63804;53.120;8.764;2023-12-20T09:17:23;15.77;;;3.13;;
54919;SDS011;63804;53.120;8.764;2023-12-20T09:19:51;18.75;;;3.28;;
54919;SDS011;63804;53.120;8.764;2023-12-20T09:22:21;13.55;;;2.60;;
54919;SDS011;63804;53.120;8.764;2023-12-20T09:24:50;21.05;;;3.58;;
54919;SDS011;63804;53.120;8.764;2023-12-20T09:27:17;15.25;;;2.88;;
54919;SDS011;63804;53.120;8.764;2023-12-20T09:29:45;15.93;;;3.42;;
54919;SDS011;63804;53.120;8.764;2023-12-20T09:32:16;13.63;;;3.05;;
54919;SDS011;63804;53.120;8.764;2023-12-20T09:34:43;12.07;;;3.03;;
54919;SDS011;63804;53.120;8.764;2023-12-20T09:37:11;12.60;;;2.72;;
54919;SDS011;63804;53.120;8.764;2023-12-20T09:39:39;14.90;;;2.92;;
54919;SDS011;63804;53.120;8.764;2023-12-20T09:42:07;18.10;;;3.05;;
54919;SDS011;63804;53.120;8.764;2023-12-20T09:44:36;14.13;;;3.58;;
54919;SDS011;63804;53.120;8.764;2023-12-20T09:47:08;8.57;;;1.40;;
54919;SDS011;63804;53.120;8.764;2023-12-20T09:49:36;5.75;;;1.10;;
54919;SDS011;63804;53.120;8.764;2023-12-20T09:52:05;4.28;;;1.10;;
54919;SDS011;63804;53.120;8.764;2023-12-20T09:54:36;4.68;;;1.00;;
54919;SDS011;63804;53.120;8.764;2023-12-20T09:57:04;8.32;;;2.30;;
54919;SDS011;63804;53.120;8.764;2023-12-20T09:59:32;9.05;;;2.92;;
54919;SDS011;63804;53.120;8.764;2023-12-20T10:02:01;11.77;;;3.53;;
54919;SDS011;63804;53.120;8.764;2023-12-20T10:04:31;10.85;;;3.08;;
54919;SDS011;63804;53.120;8.764;2023-12-20T10:07:02;6.53;;;1.52;;
54919;SDS011;63804;53.120;8.764;2023-12-20T10:12:02;6.90;;;1.67;;
54919;SDS011;63804;53.120;8.764;2023-12-20T10:14:30;5.65;;;1.52;;
54919;SDS011;63804;53.120;8.764;2023-12-20T10:17:02;6.57;;;1.42;;
54919;SDS011;63804;53.120;8.764;2023-12-20T10:19:31;4.70;;;1.17;;
54919;SDS011;63804;53.120;8.764;2023-12-20T10:22:00;4.93;;;0.93;;
54919;SDS011;63804;53.120;8.764;2023-12-20T10:24:29;4.15;;;0.90;;
54919;SDS011;63804;53.120;8.764;2023-12-20T10:27:01;3.78;;;1.05;;
54919;SDS011;63804;53.120;8.764;2023-12-20T10:29:36;4.68;;;1.20;;
54919;SDS011;63804;53.120;8.764;2023-12-20T10:32:21;6.00;;;0.98;;
54919;SDS011;63804;53.120;8.764;2023-12-20T10:34:50;5.05;;;1.25;;
54919;SDS011;63804;53.120;8.764;2023-12-20T10:37:19;7.60;;;1.40;;
54919;SDS011;63804;53.120;8.764;2023-12-20T10:39:51;4.55;;;0.95;;
54919;SDS011;63804;53.120;8.764;2023-12-20T10:42:27;6.20;;;1.05;;
54919;SDS011;63804;53.120;8.764;2023-12-20T10:44:58;5.78;;;1.35;;
54919;SDS011;63804;53.120;8.764;2023-12-20T10:47:29;8.88;;;1.83;;
54919;SDS011;63804;53.120;8.764;2023-12-20T10:49:59;8.00;;;2.30;;
54919;SDS011;63804;53.120;8.764;2023-12-20T10:52:28;6.80;;;1.80;;
54919;SDS011;63804;53.120;8.764;2023-12-20T10:54:58;7.88;;;1.20;;
54919;SDS011;63804;53.120;8.764;2023-12-20T10:57:29;5.63;;;1.52;;
54919;SDS011;63804;53.120;8.764;2023-12-20T10:59:58;4.93;;;1.40;;
54919;SDS011;63804;53.120;8.764;2023-12-20T11:02:32;5.80;;;1.40;;
54919;SDS011;63804;53.120;8.764;2023-12-20T11:05:10;4.85;;;1.08;;
54919;SDS011;63804;53.120;8.764;2023-12-20T11:07:51;6.43;;;1.50;;
54919;SDS011;63804;53.120;8.764;2023-12-20T11:10:26;8.23;;;1.55;;
54919;SDS011;63804;53.120;8.764;2023-12-20T11:13:16;5.20;;;1.60;;
54919;SDS011;63804;53.120;8.764;2023-12-20T11:15:48;6.50;;;1.45;;
54919;SDS011;63804;53.120;8.764;2023-12-20T11:18:16;10.18;;;1.65;;
54919;SDS011;63804;53.120;8.764;2023-12-20T11:20:44;6.88;;;1.65;;
54919;SDS011;63804;53.120;8.764;2023-12-20T11:23:12;7.30;;;1.40;;
54919;SDS011;63804;53.120;8.764;2023-12-20T11:25:48;6.43;;;1.33;;
54919;SDS011;63804;53.120;8.764;2023-12-20T11:28:25;7.32;;;1.35;;
54919;SDS011;63804;53.120;8.764;2023-12-20T11:30:55;8.70;;;1.58;;
54919;SDS011;63804;53.120;8.764;2023-12-20T11:33:29;6.45;;;1.45;;
54919;SDS011;63804;53.120;8.764;2023-12-20T11:38:37;8.10;;;2.30;;
54919;SDS011;63804;53.120;8.764;2023-12-20T11:41:05;11.50;;;2.20;;
54919;SDS011;63804;53.120;8.764;2023-12-20T11:43:36;8.50;;;1.80;;
54919;SDS011;63804;53.120;8.764;2023-12-20T11:46:06;10.50;;;1.95;;
54919;SDS011;63804;53.120;8.764;2023-12-20T11:48:39;7.72;;;1.92;;
54919;SDS011;63804;53.120;8.764;2023-12-20T11:51:11;7.95;;;1.88;;
54919;SDS011;63804;53.120;8.764;2023-12-20T11:53:40;9.52;;;1.90;;
54919;SDS011;63804;53.120;8.764;2023-12-20T11:56:10;8.68;;;1.60;;
54919;SDS011;63804;53.120;8.764;2023-12-20T11:58:38;10.43;;;1.98;;
54919;SDS011;63804;53.120;8.764;2023-12-20T12:01:06;7.55;;;1.33;;
54919;SDS011;63804;53.120;8.764;2023-12-20T12:03:36;8.73;;;1.80;;
54919;SDS011;63804;53.120;8.764;2023-12-20T12:06:04;10.27;;;2.30;;
54919;SDS011;63804;53.120;8.764;2023-12-20T12:08:32;13.18;;;2.00;;
54919;SDS011;63804;53.120;8.764;2023-12-20T12:11:01;10.90;;;1.58;;
54919;SDS011;63804;53.120;8.764;2023-12-20T12:13:32;9.48;;;2.33;;
54919;SDS011;63804;53.120;8.764;2023-12-20T12:16:00;9.23;;;1.70;;
54919;SDS011;63804;53.120;8.764;2023-12-20T12:18:28;10.20;;;1.77;;
54919;SDS011;63804;53.120;8.764;2023-12-20T12:21:00;11.02;;;1.80;;
54919;SDS011;63804;53.120;8.764;2023-12-20T12:23:41;8.32;;;1.80;;
54919;SDS011;63804;53.120;8.764;2023-12-20T12:26:09;11.23;;;1.88;;
54919;SDS011;63804;53.120;8.764;2023-12-20T12:28:39;10.43;;;1.75;;
54919;SDS011;63804;53.120;8.764;2023-12-20T12:31:29;8.05;;;1.83;;
54919;SDS011;63804;53.120;8.764;2023-12-20T12:33:56;9.43;;;1.90;;
54919;SDS011;63804;53.120;8.764;2023-12-20T12:36:25;9.25;;;1.70;;
54919;SDS011;63804;53.120;8.764;2023-12-20T12:38:55;9.80;;;2.00;;
54919;SDS011;63804;53.120;8.764;2023-12-20T12:41:24;11.50;;;2.60;;
54919;SDS011;63804;53.120;8.764;2023-12-20T12:43:52;14.80;;;2.65;;
54919;SDS011;63804;53.120;8.764;2023-12-20T12:46:25;11.75;;;2.30;;
54919;SDS011;63804;53.120;8.764;2023-12-20T12:48:53;15.55;;;3.15;;
54919;SDS011;63804;53.120;8.764;2023-12-20T12:51:21;16.00;;;3.25;;
54919;SDS011;63804;53.120;8.764;2023-12-20T12:53:49;13.57;;;3.17;;
54919;SDS011;63804;53.120;8.764;2023-12-20T12:56:17;12.48;;;2.22;;
54919;SDS011;63804;53.120;8.764;2023-12-20T12:58:45;11.15;;;2.50;;
54919;SDS011;63804;53.120;8.764;2023-12-20T13:01:13;16.58;;;2.65;;
54919;SDS011;63804;53.120;8.764;2023-12-20T13:03:42;15.63;;;2.65;;
54919;SDS011;63804;53.120;8.764;2023-12-20T13:06:10;11.95;;;2.03;;
54919;SDS011;63804;53.120;8.764;2023-12-20T13:08:41;13.25;;;2.97;;
54919;SDS011;63804;53.120;8.764;2023-12-20T13:11:09;16.58;;;2.78;;
54919;SDS011;63804;53.120;8.764;2023-12-20T13:13:37;8.82;;;2.33;;
54919;SDS011;63804;53.120;8.764;2023-12-20T13:16:05;11.45;;;2.13;;
54919;SDS011;63804;53.120;8.764;2023-12-20T13:18:33;13.70;;;2.15;;
54919;SDS011;63804;53.120;8.764;2023-12-20T13:21:01;12.70;;;2.20;;
54919;SDS011;63804;53.120;8.764;2023-12-20T13:23:29;11.13;;;1.85;;
54919;SDS011;63804;53.120;8.764;2023-12-20T13:25:57;11.48;;;2.30;;
54919;SDS011;63804;53.120;8.764;2023-12-20T13:28:25;9.52;;;1.85;;
54919;SDS011;63804;53.120;8.764;2023-12-20T13:30:54;11.52;;;2.10;;
54919;SDS011;63804;53.120;8.764;2023-12-20T13:33:22;14.75;;;2.28;;
54919;SDS011;63804;53.120;8.764;2023-12-20T13:35:50;10.90;;;2.30;;
54919;SDS011;63804;53.120;8.764;2023-12-20T13:38:18;10.75;;;1.98;;
54919;SDS011;63804;53.120;8.764;2023-12-20T13:40:46;9.38;;;2.00;;
54919;SDS011;63804;53.120;8.764;2023-12-20T13:43:14;10.48;;;1.83;;
54919;SDS011;63804;53.120;8.764;2023-12-20T13:45:44;9.85;;;2.08;;
54919;SDS011;63804;53.120;8.764;2023-12-20T13:48:12;11.27;;;2.38;;
54919;SDS011;63804;53.120;8.764;2023-12-20T13:50:40;10.27;;;2.10;;
54919;SDS011;63804;53.120;8.764;2023-12-20T13:53:08;12.23;;;2.45;;
54919;SDS011;63804;53.120;8.764;2023-12-20T13:55:36;15.73;;;3.10;;
54919;SDS011;63804;53.120;8.764;2023-12-20T13:58:04;14.32;;;2.42;;
54919;SDS011;63804;53.120;8.764;2023-12-20T14:00:32;14.93;;;2.35;;
54919;SDS011;63804;53.120;8.764;2023-12-20T14:03:00;9.95;;;2.15;;
54919;SDS011;63804;53.120;8.764;2023-12-20T14:05:29;14.27;;;2.53;;
54919;SDS011;63804;53.120;8.764;2023-12-20T14:07:57;13.10;;;2.28;;
54919;SDS011;63804;53.120;8.764;2023-12-20T14:10:25;12.02;;;2.35;;
54919;SDS011;63804;53.120;8.764;2023-12-20T14:12:56;13.25;;;2.35;;
54919;SDS011;63804;53.120;8.764;2023-12-20T14:15:24;11.23;;;2.00;;
54919;SDS011;63804;53.120;8.764;2023-12-20T14:17:53;13.05;;;2.33;;
54919;SDS011;63804;53.120;8.764;2023-12-20T14:20:22;18.85;;;2.70;;
54919;SDS011;63804;53.120;8.764;2023-12-20T14:22:50;12.27;;;2.45;;
54919;SDS011;63804;53.120;8.764;2023-12-20T14:25:18;9.60;;;2.08;;
54919;SDS011;63804;53.120;8.764;2023-12-20T14:27:46;14.80;;;2.30;;
54919;SDS011;63804;53.120;8.764;2023-12-20T14:30:15;18.67;;;2.75;;
54919;SDS011;63804;53.120;8.764;2023-12-20T14:32:44;14.05;;;2.08;;
54919;SDS011;63804;53.120;8.764;2023-12-20T14:35:12;11.40;;;2.35;;
54919;SDS011;63804;53.120;8.764;2023-12-20T14:37:40;16.05;;;2.60;;
54919;SDS011;63804;53.120;8.764;2023-12-20T14:40:09;12.35;;;1.92;;
54919;SDS011;63804;53.120;8.764;2023-12-20T14:42:46;13.02;;;2.47;;
54919;SDS011;63804;53.120;8.764;2023-12-20T14:45:14;15.25;;;2.60;;
54919;SDS011;63804;53.120;8.764;2023-12-20T14:47:43;11.07;;;2.15;;
54919;SDS011;63804;53.120;8.764;2023-12-20T14:50:12;9.48;;;1.73;;
54919;SDS011;63804;53.120;8.764;2023-12-20T14:52:45;16.57;;;2.33;;
54919;SDS011;63804;53.120;8.764;2023-12-20T14:55:13;13.90;;;2.10;;
54919;SDS011;63804;53.120;8.764;2023-12-20T14:57:41;12.32;;;2.08;;
54919;SDS011;63804;53.120;8.764;2023-12-20T15:00:09;9.60;;;1.88;;
54919;SDS011;63804;53.120;8.764;2023-12-20T15:02:37;11.07;;;2.35;;
54919;SDS011;63804;53.120;8.764;2023-12-20T15:05:06;10.25;;;2.22;;
54919;SDS011;63804;53.120;8.764;2023-12-20T15:07:34;13.18;;;2.38;;
54919;SDS011;63804;53.120;8.764;2023-12-20T15:10:04;12.05;;;2.22;;
54919;SDS011;63804;53.120;8.764;2023-12-20T15:12:32;13.20;;;2.45;;
54919;SDS011;63804;53.120;8.764;2023-12-20T15:15:01;13.05;;;2.28;;
54919;SDS011;63804;53.120;8.764;2023-12-20T15:17:30;15.20;;;2.35;;
54919;SDS011;63804;53.120;8.764;2023-12-20T15:19:58;11.20;;;2.15;;
54919;SDS011;63804;53.120;8.764;2023-12-20T15:22:26;8.68;;;1.50;;
54919;SDS011;63804;53.120;8.764;2023-12-20T15:24:54;11.70;;;1.80;;
54919;SDS011;63804;53.120;8.764;2023-12-20T15:27:23;9.80;;;1.83;;
54919;SDS011;63804;53.120;8.764;2023-12-20T15:29:52;11.50;;;1.90;;
54919;SDS011;63804;53.120;8.764;2023-12-20T15:32:19;15.43;;;2.22;;
54919;SDS011;63804;53.120;8.764;2023-12-20T15:34:48;11.65;;;2.78;;
54919;SDS011;63804;53.120;8.764;2023-12-20T15:37:16;8.48;;;2.10;;
54919;SDS011;63804;53.120;8.764;2023-12-20T15:39:44;13.25;;;2.03;;
54919;SDS011;63804;53.120;8.764;2023-12-20T15:42:12;10.98;;;2.45;;
54919;SDS011;63804;53.120;8.764;2023-12-20T15:44:40;12.27;;;2.38;;
54919;SDS011;63804;53.120;8.764;2023-12-20T15:47:08;10.20;;;2.08;;
54919;SDS011;63804;53.120;8.764;2023-12-20T15:49:35;13.63;;;2.08;;
54919;SDS011;63804;53.120;8.764;2023-12-20T15:52:04;12.90;;;2.10;;
54919;SDS011;63804;53.120;8.764;2023-12-20T15:54:33;12.05;;;2.30;;
54919;SDS011;63804;53.120;8.764;2023-12-20T15:57:01;10.15;;;2.10;;
54919;SDS011;63804;53.120;8.764;2023-12-20T15:59:29;11.45;;;1.95;;
54919;SDS011;63804;53.120;8.764;2023-12-20T16:01:57;9.82;;;2.00;;
54919;SDS011;63804;53.120;8.764;2023-12-20T16:04:25;12.82;;;2.50;;
54919;SDS011;63804;53.120;8.764;2023-12-20T16:06:53;11.18;;;2.20;;
54919;SDS011;63804;53.120;8.764;2023-12-20T16:09:21;9.75;;;2.00;;
54919;SDS011;63804;53.120;8.764;2023-12-20T16:11:49;8.40;;;1.60;;
54919;SDS011;63804;53.120;8.764;2023-12-20T16:14:17;7.25;;;1.48;;
54919;SDS011;63804;53.120;8.764;2023-12-20T16:16:47;7.60;;;1.95;;
54919;SDS011;63804;53.120;8.764;2023-12-20T16:19:15;9.00;;;1.42;;
54919;SDS011;63804;53.120;8.764;2023-12-20T16:21:43;8.73;;;1.85;;
54919;SDS011;63804;53.120;8.764;2023-12-20T16:24:11;8.77;;;1.48;;
54919;SDS011;63804;53.120;8.764;2023-12-20T16:26:39;11.27;;;1.70;;
54919;SDS011;63804;53.120;8.764;2023-12-20T16:29:08;7.97;;;1.65;;
54919;SDS011;63804;53.120;8.764;2023-12-20T16:31:35;7.30;;;1.30;;
54919;SDS011;63804;53.120;8.764;2023-12-20T16:34:03;6.90;;;1.77;;
54919;SDS011;63804;53.120;8.764;2023-12-20T16:39:19;6.75;;;1.60;;
54919;SDS011;63804;53.120;8.764;2023-12-20T16:41:51;8.85;;;1.67;;
54919;SDS011;63804;53.120;8.764;2023-12-20T16:44:19;9.07;;;1.55;;
54919;SDS011;63804;53.120;8.764;2023-12-20T16:46:47;13.52;;;1.90;;
54919;SDS011;63804;53.120;8.764;2023-12-20T16:49:15;9.45;;;2.53;;
54919;SDS011;63804;53.120;8.764;2023-12-20T16:51:43;11.23;;;2.72;;
54919;SDS011;63804;53.120;8.764;2023-12-20T16:54:11;10.93;;;2.58;;
54919;SDS011;63804;53.120;8.764;2023-12-20T16:56:40;12.27;;;2.53;;
54919;SDS011;63804;53.120;8.764;2023-12-20T16:59:08;8.02;;;1.98;;
54919;SDS011;63804;53.120;8.764;2023-12-20T17:01:39;12.93;;;1.80;;
54919;SDS011;63804;53.120;8.764;2023-12-20T17:04:13;8.48;;;1.70;;
54919;SDS011;63804;53.120;8.764;2023-12-20T17:06:41;9.38;;;1.80;;
54919;SDS011;63804;53.120;8.764;2023-12-20T17:09:09;7.32;;;1.80;;
54919;SDS011;63804;53.120;8.764;2023-12-20T17:11:40;6.05;;;1.27;;
54919;SDS011;63804;53.120;8.764;2023-12-20T17:14:07;9.48;;;1.40;;
54919;SDS011;63804;53.120;8.764;2023-12-20T17:16:38;10.70;;;1.73;;
54919;SDS011;63804;53.120;8.764;2023-12-20T17:19:06;12.27;;;1.65;;
54919;SDS011;63804;53.120;8.764;2023-12-20T17:21:34;6.20;;;1.52;;
54919;SDS011;63804;53.120;8.764;2023-12-20T17:24:03;7.30;;;1.35;;
54919;SDS011;63804;53.120;8.764;2023-12-20T17:26:33;5.07;;;1.52;;
54919;SDS011;63804;53.120;8.764;2023-12-20T17:29:01;5.55;;;1.33;;
54919;SDS011;63804;53.120;8.764;2023-12-20T17:31:29;7.32;;;1.42;;
54919;SDS011;63804;53.120;8.764;2023-12-20T17:33:57;7.00;;;1.27;;
54919;SDS011;63804;53.120;8.764;2023-12-20T17:36:25;5.63;;;1.15;;
54919;SDS011;63804;53.120;8.764;2023-12-20T17:38:53;6.60;;;1.50;;
54919;SDS011;63804;53.120;8.764;2023-12-20T17:41:21;9.80;;;1.58;;
54919;SDS011;63804;53.120;8.764;2023-12-20T17:43:49;7.53;;;1.35;;
54919;SDS011;63804;53.120;8.764;2023-12-20T17:46:20;6.13;;;1.38;;
54919;SDS011;63804;53.120;8.764;2023-12-20T17:48:48;10.25;;;1.77;;
54919;SDS011;63804;53.120;8.764;2023-12-20T17:51:16;9.55;;;1.60;;
54919;SDS011;63804;53.120;8.764;2023-12-20T17:53:44;6.50;;;1.50;;
54919;SDS011;63804;53.120;8.764;2023-12-20T17:56:13;9.80;;;1.63;;
54919;SDS011;63804;53.120;8.764;2023-12-20T17:58:41;8.98;;;1.38;;
54919;SDS011;63804;53.120;8.764;2023-12-20T18:01:10;7.55;;;1.63;;
54919;SDS011;63804;53.120;8.764;2023-12-20T18:03:38;9.60;;;1.80;;
54919;SDS011;63804;53.120;8.764;2023-12-20T18:06:06;9.73;;;2.13;;
54919;SDS011;63804;53.120;8.764;2023-12-20T18:08:35;7.95;;;1.70;;
54919;SDS011;63804;53.120;8.764;2023-12-20T18:11:03;6.68;;;1.83;;
54919;SDS011;63804;53.120;8.764;2023-12-20T18:13:32;9.65;;;2.10;;
54919;SDS011;63804;53.120;8.764;2023-12-20T18:15:59;8.27;;;2.40;;
54919;SDS011;63804;53.120;8.764;2023-12-20T18:18:28;8.73;;;2.05;;